createdAt,value
2017-08-17T00:00:13.323Z,59.95
2017-08-17T00:02:40.845Z,61.75
2017-08-17T00:05:08.346Z,60.60
2017-08-17T00:07:35.899Z,59.66
2017-08-17T00:10:03.419Z,59.06
2017-08-17T00:12:30.952Z,58.88
2017-08-17T00:14:58.555Z,58.33
2017-08-17T00:17:26.083Z,58.62
2017-08-17T00:19:53.597Z,58.47
2017-08-17T00:22:21.167Z,58.77
2017-08-17T00:24:48.754Z,58.78
2017-08-17T00:27:16.288Z,58.36
2017-08-17T00:29:43.853Z,58.33
2017-08-17T00:32:11.439Z,58.84
2017-08-17T00:34:38.973Z,58.20
2017-08-17T00:37:06.848Z,57.71
2017-08-17T00:39:34.416Z,57.22
2017-08-17T00:42:02.007Z,57.46
2017-08-17T00:44:29.542Z,57.34
2017-08-17T00:46:57.119Z,57.23
2017-08-17T00:49:24.626Z,57.09
2017-08-17T00:51:52.159Z,57.75
2017-08-17T00:54:19.731Z,57.72
2017-08-17T00:56:47.268Z,57.19
2017-08-17T00:59:14.793Z,56.72
2017-08-17T01:01:42.353Z,56.71
2017-08-17T01:04:09.892Z,57.02
2017-08-17T01:06:37.432Z,56.93
2017-08-17T01:09:05.234Z,57.14
2017-08-17T01:11:32.768Z,57.77
2017-08-17T01:14:00.647Z,57.59
2017-08-17T01:16:28.189Z,57.74
2017-08-17T01:18:56.145Z,58.39
2017-08-17T01:21:24.005Z,57.78
2017-08-17T01:23:51.571Z,57.57
2017-08-17T01:26:19.113Z,57.64
2017-08-17T01:28:46.683Z,57.82
2017-08-17T01:31:14.287Z,57.40
2017-08-17T01:33:42.083Z,57.20
2017-08-17T01:36:09.623Z,57.05
2017-08-17T01:38:37.201Z,57.01
2017-08-17T01:41:04.767Z,56.86
2017-08-17T01:43:32.334Z,57.28
2017-08-17T01:46:00.291Z,57.33
2017-08-17T01:48:27.857Z,57.41
2017-08-17T01:50:55.418Z,57.32
2017-08-17T01:53:23.022Z,57.26
2017-08-17T01:55:50.545Z,57.24
2017-08-17T01:58:18.423Z,57.22
2017-08-17T02:00:46.059Z,57.24
2017-08-17T02:03:13.587Z,57.53
2017-08-17T02:05:41.143Z,57.96
2017-08-17T02:08:08.720Z,57.76
2017-08-17T02:10:36.906Z,58.22
2017-08-17T02:13:04.430Z,58.63
2017-08-17T02:15:31.968Z,58.69
2017-08-17T02:17:59.832Z,58.84
2017-08-17T02:20:27.353Z,58.96
2017-08-17T02:22:54.905Z,58.99
2017-08-17T02:25:22.440Z,58.85
2017-08-17T02:27:49.981Z,58.77
2017-08-17T02:30:17.627Z,58.74
2017-08-17T02:32:45.141Z,59.21
2017-08-17T02:35:12.661Z,59.50
2017-08-17T02:37:40.240Z,59.19
2017-08-17T02:40:07.756Z,59.17
2017-08-17T02:42:35.503Z,59.39
2017-08-17T02:45:03.054Z,59.54
2017-08-17T02:47:30.571Z,59.48
2017-08-17T02:49:58.092Z,59.42
2017-08-17T02:52:25.659Z,59.54
2017-08-17T02:54:53.188Z,61.31
2017-08-17T02:57:20.982Z,61.06
2017-08-17T02:59:49.113Z,63.01
2017-08-17T03:02:16.660Z,64.94
2017-08-17T03:04:44.164Z,65.75
2017-08-17T03:07:11.696Z,65.90
2017-08-17T03:09:39.276Z,64.31
2017-08-17T03:12:06.973Z,63.69
2017-08-17T03:14:34.492Z,63.52
2017-08-17T03:17:02.055Z,63.29
2017-08-17T03:19:29.584Z,63.31
2017-08-17T03:21:57.131Z,62.85
2017-08-17T03:24:24.680Z,62.32
2017-08-17T03:26:52.432Z,62.46
2017-08-17T03:29:19.938Z,62.24
2017-08-17T03:31:47.520Z,62.25
2017-08-17T03:34:15.296Z,62.23
2017-08-17T03:36:42.840Z,62.78
2017-08-17T03:39:10.394Z,62.99
2017-08-17T03:41:38.258Z,63.00
2017-08-17T03:44:05.792Z,62.59
2017-08-17T03:46:33.340Z,62.41
2017-08-17T03:49:01.169Z,62.19
2017-08-17T03:51:28.686Z,62.05
2017-08-17T03:53:56.245Z,61.66
2017-08-17T03:56:23.745Z,61.85
2017-08-17T03:58:51.487Z,61.95
2017-08-17T04:01:19.042Z,62.50
2017-08-17T04:03:46.575Z,64.15
2017-08-17T04:06:14.368Z,62.98
2017-08-17T04:08:42.004Z,62.79
2017-08-17T04:11:09.516Z,62.33
2017-08-17T04:13:37.050Z,62.52
2017-08-17T04:16:04.609Z,62.02
2017-08-17T04:18:32.174Z,61.10
2017-08-17T04:20:59.716Z,61.15
2017-08-17T04:23:27.279Z,61.19
2017-08-17T04:25:54.794Z,61.13
2017-08-17T04:28:22.328Z,60.80
2017-08-17T04:30:50.273Z,60.27
2017-08-17T04:33:18.019Z,59.67
2017-08-17T04:35:45.564Z,59.33
2017-08-17T04:38:13.103Z,58.31
2017-08-17T04:40:40.625Z,57.78
2017-08-17T04:43:08.419Z,57.71
2017-08-17T04:45:35.983Z,58.11
2017-08-17T04:48:04.583Z,57.96
2017-08-17T04:50:32.088Z,57.37
2017-08-17T04:52:59.655Z,57.22
2017-08-17T04:55:27.443Z,56.85
2017-08-17T04:58:12.470Z,56.47
2017-08-17T05:00:40.027Z,56.12
2017-08-17T05:03:07.582Z,55.97
2017-08-17T05:05:35.094Z,55.33
2017-08-17T05:08:02.648Z,54.98
2017-08-17T05:10:30.158Z,54.68
2017-08-17T05:12:57.941Z,55.00
2017-08-17T05:15:25.503Z,54.38
2017-08-17T05:17:53.400Z,53.81
2017-08-17T05:20:20.934Z,52.73
2017-08-17T05:22:49.057Z,52.32
2017-08-17T05:25:16.565Z,51.38
2017-08-17T05:27:44.083Z,49.40
2017-08-17T05:30:11.710Z,48.90
2017-08-17T05:32:39.569Z,49.35
2017-08-17T05:35:07.102Z,49.19
2017-08-17T05:37:34.684Z,48.95
2017-08-17T05:40:02.202Z,48.64
2017-08-17T05:42:30.109Z,48.17
2017-08-17T05:44:57.987Z,47.68
2017-08-17T05:47:25.510Z,47.38
2017-08-17T05:49:53.378Z,46.58
2017-08-17T05:52:20.981Z,46.49
2017-08-17T05:54:48.719Z,45.91
2017-08-17T05:57:17.073Z,45.43
2017-08-17T05:59:44.624Z,45.44
2017-08-17T06:02:12.176Z,45.04
2017-08-17T06:04:39.699Z,44.17
2017-08-17T06:07:07.205Z,43.35
2017-08-17T06:09:35.010Z,43.10
2017-08-17T06:12:03.197Z,42.69
2017-08-17T06:14:30.723Z,41.99
2017-08-17T06:16:58.276Z,41.74
2017-08-17T06:19:26.060Z,41.27
2017-08-17T06:21:53.570Z,41.02
2017-08-17T06:24:21.153Z,40.98
2017-08-17T06:26:48.674Z,40.64
2017-08-17T06:29:16.202Z,39.07
2017-08-17T06:31:44.088Z,39.93
2017-08-17T06:34:11.619Z,39.45
2017-08-17T06:36:39.132Z,39.14
2017-08-17T06:39:06.687Z,38.95
2017-08-17T06:41:34.203Z,37.90
2017-08-17T06:44:01.723Z,36.94
2017-08-17T06:46:29.310Z,37.38
2017-08-17T06:48:57.314Z,36.99
2017-08-17T06:51:24.872Z,36.80
2017-08-17T06:53:52.640Z,35.45
2017-08-17T06:56:20.411Z,36.07
2017-08-17T06:58:48.424Z,36.68
2017-08-17T07:01:16.035Z,37.92
2017-08-17T07:03:43.581Z,39.30
2017-08-17T07:06:11.117Z,38.39
2017-08-17T07:08:38.653Z,38.26
2017-08-17T07:11:06.250Z,37.10
2017-08-17T07:13:33.763Z,36.26
2017-08-17T07:16:01.314Z,36.33
2017-08-17T07:18:28.839Z,36.81
2017-08-17T07:20:56.363Z,35.78
2017-08-17T07:23:23.955Z,34.87
2017-08-17T07:25:51.477Z,34.27
2017-08-17T07:28:19.234Z,33.62
2017-08-17T07:30:46.840Z,32.66
2017-08-17T07:33:14.591Z,31.74
2017-08-17T07:35:42.438Z,33.59
2017-08-17T07:38:09.976Z,33.25
2017-08-17T07:40:37.497Z,33.61
2017-08-17T07:43:05.025Z,32.66
2017-08-17T07:45:32.572Z,32.10
2017-08-17T07:48:00.103Z,31.67
2017-08-17T07:50:27.669Z,31.65
2017-08-17T07:52:55.242Z,31.65
2017-08-17T07:55:22.825Z,30.75
2017-08-17T07:57:50.576Z,29.68
2017-08-17T08:00:18.252Z,30.30
2017-08-17T08:02:45.766Z,30.95
2017-08-17T08:05:13.376Z,30.99
2017-08-17T08:07:40.923Z,30.11
2017-08-17T08:10:09.267Z,30.04
2017-08-17T08:12:36.777Z,29.66
2017-08-17T08:15:04.628Z,30.11
2017-08-17T08:17:32.143Z,30.15
2017-08-17T08:19:59.726Z,30.09
2017-08-17T08:22:27.278Z,29.91
2017-08-17T08:24:54.799Z,29.88
2017-08-17T08:27:22.542Z,29.37
2017-08-17T08:29:50.092Z,29.63
2017-08-17T08:32:17.629Z,28.80
2017-08-17T08:34:45.396Z,29.14
2017-08-17T08:37:12.931Z,27.83
2017-08-17T08:39:40.870Z,27.46
2017-08-17T08:42:08.643Z,26.99
2017-08-17T08:44:36.172Z,27.54
2017-08-17T08:47:03.716Z,27.26
2017-08-17T08:49:31.268Z,26.12
2017-08-17T08:51:58.843Z,26.80
2017-08-17T08:54:26.624Z,26.91
2017-08-17T08:56:54.205Z,26.39
2017-08-17T08:59:21.739Z,26.55
2017-08-17T09:01:49.289Z,26.33
2017-08-17T09:04:17.138Z,26.86
2017-08-17T09:06:44.671Z,26.82
2017-08-17T09:09:12.269Z,27.25
2017-08-17T09:11:39.807Z,27.46
2017-08-17T09:14:07.555Z,24.85
2017-08-17T09:16:35.105Z,25.02
2017-08-17T09:19:02.624Z,25.27
2017-08-17T09:21:30.129Z,24.94
2017-08-17T09:23:57.714Z,27.39
2017-08-17T09:26:25.214Z,27.89
2017-08-17T09:28:52.730Z,28.04
2017-08-17T09:31:20.287Z,28.30
2017-08-17T09:33:48.162Z,27.47
2017-08-17T09:36:15.681Z,26.22
2017-08-17T09:38:43.223Z,26.24
2017-08-17T09:41:10.859Z,27.13
2017-08-17T09:43:38.367Z,28.70
2017-08-17T09:46:06.099Z,28.04
2017-08-17T09:48:33.861Z,26.19
2017-08-17T09:51:01.379Z,26.59
2017-08-17T09:53:28.913Z,25.99
2017-08-17T09:55:56.410Z,25.13
2017-08-17T09:58:23.920Z,25.07
2017-08-17T10:00:51.530Z,25.47
2017-08-17T10:03:19.399Z,25.16
2017-08-17T10:05:46.933Z,24.78
2017-08-17T10:08:14.539Z,24.81
2017-08-17T10:10:42.090Z,25.03
2017-08-17T10:13:09.645Z,25.59
2017-08-17T10:15:37.219Z,24.27
2017-08-17T10:18:04.763Z,24.70
2017-08-17T10:20:32.321Z,24.90
2017-08-17T10:22:59.914Z,24.25
2017-08-17T10:25:27.461Z,24.19
2017-08-17T10:27:55.074Z,22.47
2017-08-17T10:30:22.712Z,22.36
2017-08-17T10:32:50.262Z,22.17
2017-08-17T10:35:18.068Z,21.91
2017-08-17T10:37:45.675Z,21.74
2017-08-17T10:40:13.239Z,21.90
2017-08-17T10:42:40.835Z,22.21
2017-08-17T10:45:08.459Z,21.93
2017-08-17T10:47:36.000Z,21.58
2017-08-17T10:50:03.903Z,21.54
2017-08-17T10:52:31.482Z,20.72
2017-08-17T10:54:59.068Z,19.73
2017-08-17T10:57:26.934Z,20.01
2017-08-17T10:59:54.526Z,20.35
2017-08-17T11:02:22.120Z,20.87
2017-08-17T11:04:50.739Z,21.35
2017-08-17T11:07:18.287Z,21.43
2017-08-17T11:09:45.902Z,21.07
2017-08-17T11:12:14.324Z,21.01
2017-08-17T11:14:41.893Z,20.28
2017-08-17T11:17:09.499Z,19.90
2017-08-17T11:19:37.036Z,20.17
2017-08-17T11:22:04.835Z,20.08
2017-08-17T11:24:32.440Z,20.59
2017-08-17T11:26:59.988Z,19.67
2017-08-17T11:29:27.613Z,20.29
2017-08-17T11:31:55.233Z,21.36
2017-08-17T11:34:22.933Z,22.16
2017-08-17T11:36:50.534Z,22.26
2017-08-17T11:39:18.125Z,21.88
2017-08-17T11:41:45.758Z,20.94
2017-08-17T11:44:13.321Z,20.81
2017-08-17T11:46:40.932Z,20.74
2017-08-17T11:49:08.488Z,20.87
2017-08-17T11:51:36.052Z,21.22
2017-08-17T11:54:03.656Z,20.74
2017-08-17T11:56:31.221Z,21.48
2017-08-17T11:58:58.777Z,22.14
2017-08-17T12:01:26.411Z,22.24
2017-08-17T12:03:54.191Z,22.24
2017-08-17T12:06:21.723Z,22.59
2017-08-17T12:08:49.303Z,22.32
2017-08-17T12:11:16.839Z,22.58
2017-08-17T12:13:44.410Z,22.85
2017-08-17T12:16:12.008Z,22.29
2017-08-17T12:18:39.562Z,22.28
2017-08-17T12:21:07.115Z,22.47
2017-08-17T12:23:34.739Z,23.04
2017-08-17T12:26:02.289Z,22.82
2017-08-17T12:28:29.889Z,22.87
2017-08-17T12:30:57.552Z,22.04
2017-08-17T12:33:25.131Z,20.95
2017-08-17T12:35:52.715Z,21.22
2017-08-17T12:38:20.324Z,22.25
2017-08-17T12:40:47.910Z,23.88
2017-08-17T12:43:15.491Z,24.11
2017-08-17T12:45:43.090Z,23.67
2017-08-17T12:48:10.867Z,23.20
2017-08-17T12:50:38.783Z,22.63
2017-08-17T12:53:06.366Z,22.45
2017-08-17T12:55:33.924Z,22.39
2017-08-17T12:58:01.480Z,22.30
2017-08-17T13:00:29.235Z,22.43
2017-08-17T13:02:56.788Z,21.89
2017-08-17T13:05:24.357Z,22.17
2017-08-17T13:07:51.949Z,21.58
2017-08-17T13:10:19.501Z,22.01
2017-08-17T13:12:47.063Z,21.85
2017-08-17T13:15:15.357Z,22.08
2017-08-17T13:17:42.921Z,23.15
2017-08-17T13:20:10.503Z,24.19
2017-08-17T13:22:38.088Z,24.86
2017-08-17T13:25:05.867Z,25.06
2017-08-17T13:27:33.412Z,25.25
2017-08-17T13:30:01.010Z,25.72
2017-08-17T13:32:28.620Z,25.11
2017-08-17T13:34:56.155Z,25.02
2017-08-17T13:37:23.698Z,24.90
2017-08-17T13:39:51.279Z,25.59
2017-08-17T13:42:18.843Z,25.60
2017-08-17T13:44:46.516Z,25.43
2017-08-17T13:47:14.101Z,25.21
2017-08-17T13:49:41.659Z,24.90
2017-08-17T13:52:09.228Z,25.41
2017-08-17T13:54:36.849Z,25.47
2017-08-17T13:57:04.387Z,25.39
2017-08-17T13:59:32.210Z,24.88
2017-08-17T14:01:59.801Z,25.08
2017-08-17T14:04:27.361Z,24.03
2017-08-17T14:06:55.161Z,23.12
2017-08-17T14:09:22.766Z,22.67
2017-08-17T14:11:51.270Z,23.66
2017-08-17T14:14:18.829Z,24.13
2017-08-17T14:16:46.429Z,24.18
2017-08-17T14:19:13.983Z,24.54
2017-08-17T14:21:41.792Z,24.75
2017-08-17T14:24:09.396Z,24.66
2017-08-17T14:26:40.312Z,24.91
2017-08-17T14:29:10.784Z,24.84
2017-08-17T14:31:38.422Z,24.61
2017-08-17T14:34:06.075Z,25.19
2017-08-17T14:36:33.615Z,25.08
2017-08-17T14:39:01.415Z,25.16
2017-08-17T14:41:29.006Z,25.27
2017-08-17T14:43:56.569Z,25.10
2017-08-17T14:46:24.143Z,25.54
2017-08-17T14:48:51.706Z,25.27
2017-08-17T14:51:19.261Z,25.27
2017-08-17T14:53:46.854Z,25.74
2017-08-17T14:56:14.433Z,25.66
2017-08-17T14:58:42.231Z,25.81
2017-08-17T15:01:09.815Z,25.84
2017-08-17T15:03:37.368Z,26.34
2017-08-17T15:06:04.912Z,26.30
2017-08-17T15:08:32.537Z,27.04
2017-08-17T15:11:00.125Z,27.19
2017-08-17T15:13:27.683Z,27.21
2017-08-17T15:15:55.286Z,26.65
2017-08-17T15:18:22.850Z,26.56
2017-08-17T15:20:50.444Z,26.27
2017-08-17T15:23:18.032Z,25.86
2017-08-17T15:25:45.571Z,26.12
2017-08-17T15:28:13.106Z,26.15
2017-08-17T15:30:41.010Z,26.15
2017-08-17T15:33:08.542Z,26.34
2017-08-17T15:35:36.408Z,26.39
2017-08-17T15:38:03.990Z,26.59
2017-08-17T15:40:31.738Z,26.91
2017-08-17T15:42:59.313Z,26.55
2017-08-17T15:45:26.984Z,26.73
2017-08-17T15:47:54.556Z,27.18
2017-08-17T15:50:22.112Z,27.34
2017-08-17T15:52:49.708Z,27.00
2017-08-17T15:55:17.220Z,27.42
2017-08-17T15:57:44.775Z,26.95
2017-08-17T16:00:12.361Z,27.18
2017-08-17T16:02:39.888Z,27.25
2017-08-17T16:05:07.444Z,27.51
2017-08-17T16:07:34.997Z,27.76
2017-08-17T16:10:02.552Z,27.65
2017-08-17T16:12:30.303Z,27.83
2017-08-17T16:14:57.871Z,27.99
2017-08-17T16:17:25.387Z,28.13
2017-08-17T16:19:52.893Z,28.49
2017-08-17T16:22:20.723Z,28.54
2017-08-17T16:24:48.272Z,28.66
2017-08-17T16:27:16.006Z,28.78
2017-08-17T16:29:43.572Z,28.97
2017-08-17T16:32:11.150Z,29.34
2017-08-17T16:34:39.492Z,29.61
2017-08-17T16:37:07.030Z,29.88
2017-08-17T16:39:34.568Z,30.28
2017-08-17T16:42:02.938Z,30.98
2017-08-17T16:44:30.506Z,31.80
2017-08-17T16:46:58.087Z,32.10
2017-08-17T16:49:25.640Z,32.67
2017-08-17T16:51:53.460Z,33.10
2017-08-17T16:54:21.028Z,33.28
2017-08-17T16:56:48.546Z,33.21
2017-08-17T16:59:16.307Z,33.45
2017-08-17T17:01:43.918Z,33.67
2017-08-17T17:04:11.477Z,33.87
2017-08-17T17:06:39.015Z,34.08
2017-08-17T17:09:06.588Z,34.35
2017-08-17T17:11:34.103Z,34.40
2017-08-17T17:14:01.611Z,34.68
2017-08-17T17:16:29.179Z,34.86
2017-08-17T17:18:56.692Z,35.09
2017-08-17T17:21:24.275Z,35.27
2017-08-17T17:23:51.821Z,35.87
2017-08-17T17:26:19.331Z,35.93
2017-08-17T17:28:47.100Z,36.11
2017-08-17T17:31:14.632Z,36.38
2017-08-17T17:33:42.148Z,36.28
2017-08-17T17:36:09.675Z,36.49
2017-08-17T17:38:37.262Z,36.47
2017-08-17T17:41:04.774Z,36.45
2017-08-17T17:43:32.299Z,36.69
2017-08-17T17:46:00.066Z,36.88
2017-08-17T17:48:27.593Z,36.65
2017-08-17T17:50:55.124Z,37.21
2017-08-17T17:53:22.669Z,37.41
2017-08-17T17:55:50.516Z,37.11
2017-08-17T17:58:18.293Z,37.28
2017-08-17T18:00:45.856Z,37.69
2017-08-17T18:03:13.366Z,37.91
2017-08-17T18:05:40.890Z,37.74
2017-08-17T18:08:08.448Z,37.88
2017-08-17T18:10:35.964Z,37.97
2017-08-17T18:13:03.519Z,38.34
2017-08-17T18:15:31.116Z,38.70
2017-08-17T18:17:58.786Z,38.37
2017-08-17T18:20:26.325Z,38.78
2017-08-17T18:22:53.986Z,39.10
2017-08-17T18:25:21.618Z,38.51
2017-08-17T18:27:49.384Z,37.99
2017-08-17T18:30:17.042Z,38.92
2017-08-17T18:32:44.573Z,38.81
2017-08-17T18:35:12.153Z,38.81
2017-08-17T18:37:39.786Z,39.00
2017-08-17T18:40:07.362Z,38.84
2017-08-17T18:42:35.007Z,38.42
2017-08-17T18:45:02.949Z,37.82
2017-08-17T18:47:30.627Z,37.63
2017-08-17T18:49:58.318Z,38.60
2017-08-17T18:52:25.924Z,39.17
2017-08-17T18:54:53.554Z,39.49
2017-08-17T18:57:21.115Z,39.83
2017-08-17T18:59:48.724Z,40.07
2017-08-17T19:02:16.297Z,39.38
2017-08-17T19:04:43.842Z,39.85
2017-08-17T19:07:11.391Z,38.98
2017-08-17T19:09:38.971Z,39.21
2017-08-17T19:12:06.537Z,37.99
2017-08-17T19:14:34.834Z,36.31
2017-08-17T19:17:03.391Z,37.90
2017-08-17T19:19:30.934Z,38.69
2017-08-17T19:21:58.461Z,38.62
2017-08-17T19:24:26.101Z,39.11
2017-08-17T19:26:53.634Z,39.59
2017-08-17T19:29:21.156Z,39.45
2017-08-17T19:31:49.412Z,38.68
2017-08-17T19:34:16.955Z,39.91
2017-08-17T19:36:44.533Z,39.91
2017-08-17T19:39:12.365Z,39.86
2017-08-17T19:41:39.947Z,39.54
2017-08-17T19:44:07.792Z,40.09
2017-08-17T19:46:35.409Z,39.77
2017-08-17T19:49:03.165Z,39.88
2017-08-17T19:51:30.718Z,39.98
2017-08-17T19:53:58.308Z,41.26
2017-08-17T19:56:25.824Z,40.95
2017-08-17T19:58:53.336Z,40.78
2017-08-17T20:01:20.898Z,41.07
2017-08-17T20:03:48.525Z,41.48
2017-08-17T20:06:16.180Z,41.09
2017-08-17T20:08:43.763Z,40.30
2017-08-17T20:11:11.296Z,40.52
2017-08-17T20:13:38.892Z,41.04
2017-08-17T20:16:08.762Z,40.64
2017-08-17T20:18:36.290Z,40.89
2017-08-17T20:21:03.837Z,41.65
2017-08-17T20:23:31.386Z,42.06
2017-08-17T20:25:58.907Z,42.00
2017-08-17T20:28:26.753Z,42.34
2017-08-17T20:30:54.679Z,42.28
2017-08-17T20:33:22.468Z,42.27
2017-08-17T20:35:49.991Z,42.63
2017-08-17T20:38:18.082Z,42.29
2017-08-17T20:40:45.608Z,42.51
2017-08-17T20:43:13.127Z,42.77
2017-08-17T20:45:40.724Z,43.44
2017-08-17T20:48:08.480Z,43.77
2017-08-17T20:50:36.048Z,44.06
2017-08-17T20:53:03.597Z,43.76
2017-08-17T20:55:31.133Z,43.96
2017-08-17T20:57:58.651Z,44.44
2017-08-17T21:00:26.279Z,44.62
2017-08-17T21:02:54.061Z,45.29
2017-08-17T21:05:21.585Z,46.28
2017-08-17T21:07:49.147Z,46.46
2017-08-17T21:10:16.689Z,45.54
2017-08-17T21:12:44.227Z,44.93
2017-08-17T21:15:11.811Z,45.15
2017-08-17T21:17:39.594Z,45.28
2017-08-17T21:20:07.107Z,44.79
2017-08-17T21:22:34.648Z,44.48
2017-08-17T21:25:02.424Z,44.83
2017-08-17T21:27:29.930Z,44.60
2017-08-17T21:30:05.573Z,45.74
2017-08-17T21:32:33.133Z,45.27
2017-08-17T21:35:00.903Z,45.20
2017-08-17T21:37:28.449Z,44.82
2017-08-17T21:39:55.972Z,44.94
2017-08-17T21:42:23.555Z,45.49
2017-08-17T21:44:51.116Z,44.85
2017-08-17T21:47:18.675Z,44.32
2017-08-17T21:49:46.237Z,44.77
2017-08-17T21:52:13.782Z,45.24
2017-08-17T21:54:41.315Z,45.91
2017-08-17T21:57:08.843Z,45.90
2017-08-17T21:59:36.403Z,45.49
2017-08-17T22:02:04.061Z,46.17
2017-08-17T22:04:31.616Z,45.87
2017-08-17T22:06:59.360Z,46.27
2017-08-17T22:09:26.912Z,46.13
2017-08-17T22:11:54.447Z,45.94
2017-08-17T22:14:22.038Z,46.11
2017-08-17T22:16:49.594Z,46.04
2017-08-17T22:19:17.157Z,45.78
2017-08-17T22:22:22.560Z,45.13
2017-08-17T22:24:50.088Z,45.45
2017-08-17T22:27:17.645Z,44.49
2017-08-17T22:29:45.189Z,45.15
2017-08-17T22:32:12.720Z,44.92
2017-08-17T22:34:40.226Z,45.52
2017-08-17T22:37:07.744Z,45.61
2017-08-17T22:39:35.304Z,45.13
2017-08-17T22:42:02.855Z,45.26
2017-08-17T22:44:30.361Z,45.54
2017-08-17T22:46:57.925Z,45.51
2017-08-17T22:49:25.471Z,45.91
2017-08-17T22:51:53.054Z,46.33
2017-08-17T22:54:20.615Z,46.28
2017-08-17T22:56:48.135Z,46.71
2017-08-17T22:59:15.708Z,46.83
2017-08-17T23:01:43.268Z,47.56
2017-08-17T23:04:10.816Z,47.45
2017-08-17T23:06:38.336Z,47.33
2017-08-17T23:09:05.900Z,47.66
2017-08-17T23:11:33.924Z,47.76
2017-08-17T23:14:01.454Z,48.84
2017-08-17T23:16:29.016Z,49.17
2017-08-17T23:18:56.876Z,48.73
2017-08-17T23:21:24.415Z,48.23
2017-08-17T23:23:51.979Z,48.37
2017-08-17T23:26:19.485Z,48.50
2017-08-17T23:28:48.025Z,48.62
2017-08-17T23:31:15.593Z,48.72
2017-08-17T23:33:45.725Z,49.31
2017-08-17T23:36:15.288Z,49.37
2017-08-17T23:38:43.105Z,50.10
2017-08-17T23:41:10.743Z,49.55
2017-08-17T23:43:41.992Z,49.65
2017-08-17T23:46:14.915Z,50.63
2017-08-17T23:48:42.911Z,49.98
2017-08-17T23:51:10.765Z,49.82
2017-08-17T23:53:39.599Z,50.12
2017-08-17T23:56:07.913Z,50.68
2017-08-17T23:58:35.549Z,51.10
